sensor_id;sensor_type;location;lat;lon;timestamp;P1;durP1;ratioP1;P2;durP2;ratioP2
40675;SDS011;26359;48.750;9.314;2022-09-09T00:04:43;6.53;;;4.88;;
40675;SDS011;26359;48.750;9.314;2022-09-09T00:09:45;7.43;;;6.20;;
40675;SDS011;26359;48.750;9.314;2022-09-09T00:12:12;7.40;;;6.82;;
40675;SDS011;26359;48.750;9.314;2022-09-09T00:15:00;8.55;;;7.45;;
40675;SDS011;26359;48.750;9.314;2022-09-09T00:17:35;7.88;;;7.13;;
40675;SDS011;26359;48.750;9.314;2022-09-09T00:20:14;10.70;;;9.60;;
40675;SDS011;26359;48.750;9.314;2022-09-09T00:23:29;8.98;;;7.50;;
40675;SDS011;26359;48.750;9.314;2022-09-09T00:25:37;6.85;;;3.88;;
40675;SDS011;26359;48.750;9.314;2022-09-09T00:28:18;7.20;;;4.53;;
40675;SDS011;26359;48.750;9.314;2022-09-09T00:30:47;5.35;;;4.57;;
40675;SDS011;26359;48.750;9.314;2022-09-09T00:33:13;10.63;;;9.82;;
40675;SDS011;26359;48.750;9.314;2022-09-09T00:35:51;9.00;;;7.78;;
40675;SDS011;26359;48.750;9.314;2022-09-09T00:43:39;7.05;;;4.32;;
40675;SDS011;26359;48.750;9.314;2022-09-09T00:46:12;10.07;;;9.25;;
40675;SDS011;26359;48.750;9.314;2022-09-09T00:49:00;9.35;;;8.65;;
40675;SDS011;26359;48.750;9.314;2022-09-09T01:02:01;9.13;;;7.88;;
40675;SDS011;26359;48.750;9.314;2022-09-09T01:04:34;13.50;;;12.48;;
40675;SDS011;26359;48.750;9.314;2022-09-09T01:07:14;9.85;;;6.03;;
40675;SDS011;26359;48.750;9.314;2022-09-09T01:15:26;5.82;;;5.22;;
40675;SDS011;26359;48.750;9.314;2022-09-09T01:20:47;6.32;;;5.82;;
40675;SDS011;26359;48.750;9.314;2022-09-09T01:23:34;8.48;;;7.70;;
40675;SDS011;26359;48.750;9.314;2022-09-09T01:26:25;6.68;;;6.03;;
40675;SDS011;26359;48.750;9.314;2022-09-09T01:28:57;9.07;;;8.30;;
40675;SDS011;26359;48.750;9.314;2022-09-09T01:31:27;8.15;;;6.50;;
40675;SDS011;26359;48.750;9.314;2022-09-09T01:33:57;11.45;;;6.82;;
40675;SDS011;26359;48.750;9.314;2022-09-09T01:36:25;8.23;;;6.47;;
40675;SDS011;26359;48.750;9.314;2022-09-09T01:39:00;7.70;;;6.90;;
40675;SDS011;26359;48.750;9.314;2022-09-09T01:41:26;9.57;;;8.23;;
40675;SDS011;26359;48.750;9.314;2022-09-09T01:43:52;6.78;;;5.90;;
40675;SDS011;26359;48.750;9.314;2022-09-09T01:46:19;7.63;;;6.70;;
40675;SDS011;26359;48.750;9.314;2022-09-09T01:48:47;5.72;;;5.20;;
40675;SDS011;26359;48.750;9.314;2022-09-09T01:51:14;7.50;;;5.13;;
40675;SDS011;26359;48.750;9.314;2022-09-09T01:53:40;7.28;;;6.68;;
40675;SDS011;26359;48.750;9.314;2022-09-09T01:56:11;9.35;;;8.75;;
40675;SDS011;26359;48.750;9.314;2022-09-09T02:04:08;6.53;;;4.97;;
40675;SDS011;26359;48.750;9.314;2022-09-09T02:06:56;6.00;;;5.32;;
40675;SDS011;26359;48.750;9.314;2022-09-09T02:09:22;8.48;;;7.70;;
40675;SDS011;26359;48.750;9.314;2022-09-09T02:11:49;8.57;;;7.88;;
40675;SDS011;26359;48.750;9.314;2022-09-09T02:14:28;12.77;;;11.88;;
40675;SDS011;26359;48.750;9.314;2022-09-09T02:17:01;8.27;;;7.57;;
40675;SDS011;26359;48.750;9.314;2022-09-09T02:19:34;10.50;;;9.70;;
40675;SDS011;26359;48.750;9.314;2022-09-09T02:22:04;10.63;;;9.82;;
40675;SDS011;26359;48.750;9.314;2022-09-09T02:24:31;7.63;;;6.05;;
40675;SDS011;26359;48.750;9.314;2022-09-09T02:26:59;7.20;;;6.68;;
40675;SDS011;26359;48.750;9.314;2022-09-09T02:29:30;7.10;;;6.32;;
40675;SDS011;26359;48.750;9.314;2022-09-09T02:32:00;6.25;;;5.80;;
40675;SDS011;26359;48.750;9.314;2022-09-09T02:34:29;6.80;;;6.10;;
40675;SDS011;26359;48.750;9.314;2022-09-09T02:36:56;8.27;;;6.10;;
40675;SDS011;26359;48.750;9.314;2022-09-09T02:39:24;5.95;;;5.50;;
40675;SDS011;26359;48.750;9.314;2022-09-09T02:41:50;6.20;;;5.03;;
40675;SDS011;26359;48.750;9.314;2022-09-09T02:44:16;7.47;;;3.85;;
40675;SDS011;26359;48.750;9.314;2022-09-09T02:52:05;4.93;;;3.75;;
40675;SDS011;26359;48.750;9.314;2022-09-09T02:54:55;6.47;;;4.18;;
40675;SDS011;26359;48.750;9.314;2022-09-09T02:57:28;7.68;;;7.07;;
40675;SDS011;26359;48.750;9.314;2022-09-09T02:59:56;6.40;;;5.90;;
40675;SDS011;26359;48.750;9.314;2022-09-09T03:02:26;9.07;;;3.80;;
40675;SDS011;26359;48.750;9.314;2022-09-09T03:04:51;12.50;;;11.48;;
40675;SDS011;26359;48.750;9.314;2022-09-09T03:07:20;11.75;;;10.93;;
40675;SDS011;26359;48.750;9.314;2022-09-09T03:09:46;13.35;;;12.18;;
40675;SDS011;26359;48.750;9.314;2022-09-09T03:12:12;8.88;;;8.23;;
40675;SDS011;26359;48.750;9.314;2022-09-09T03:14:38;6.50;;;5.80;;
40675;SDS011;26359;48.750;9.314;2022-09-09T03:17:04;7.10;;;5.75;;
40675;SDS011;26359;48.750;9.314;2022-09-09T03:19:30;7.78;;;5.38;;
40675;SDS011;26359;48.750;9.314;2022-09-09T03:21:57;6.78;;;6.13;;
40675;SDS011;26359;48.750;9.314;2022-09-09T03:24:23;9.90;;;6.55;;
40675;SDS011;26359;48.750;9.314;2022-09-09T03:26:49;7.28;;;6.38;;
40675;SDS011;26359;48.750;9.314;2022-09-09T03:29:15;6.50;;;5.90;;
40675;SDS011;26359;48.750;9.314;2022-09-09T03:31:42;6.28;;;4.68;;
40675;SDS011;26359;48.750;9.314;2022-09-09T03:34:07;7.07;;;6.10;;
40675;SDS011;26359;48.750;9.314;2022-09-09T03:36:33;6.88;;;6.18;;
40675;SDS011;26359;48.750;9.314;2022-09-09T03:38:58;7.32;;;6.63;;
40675;SDS011;26359;48.750;9.314;2022-09-09T03:41:25;8.05;;;6.32;;
40675;SDS011;26359;48.750;9.314;2022-09-09T03:43:51;6.88;;;5.25;;
40675;SDS011;26359;48.750;9.314;2022-09-09T03:46:17;6.25;;;5.65;;
40675;SDS011;26359;48.750;9.314;2022-09-09T03:48:43;9.15;;;6.70;;
40675;SDS011;26359;48.750;9.314;2022-09-09T03:51:10;6.15;;;5.65;;
40675;SDS011;26359;48.750;9.314;2022-09-09T03:53:36;5.30;;;4.80;;
40675;SDS011;26359;48.750;9.314;2022-09-09T03:56:03;8.90;;;4.75;;
40675;SDS011;26359;48.750;9.314;2022-09-09T03:58:31;6.82;;;6.15;;
40675;SDS011;26359;48.750;9.314;2022-09-09T04:01:16;6.97;;;4.75;;
40675;SDS011;26359;48.750;9.314;2022-09-09T04:03:42;5.10;;;4.53;;
40675;SDS011;26359;48.750;9.314;2022-09-09T04:06:09;6.70;;;5.28;;
40675;SDS011;26359;48.750;9.314;2022-09-09T04:08:38;7.55;;;7.05;;
40675;SDS011;26359;48.750;9.314;2022-09-09T04:11:04;8.23;;;7.60;;
40675;SDS011;26359;48.750;9.314;2022-09-09T04:13:31;8.27;;;7.63;;
40675;SDS011;26359;48.750;9.314;2022-09-09T04:15:58;7.78;;;7.07;;
40675;SDS011;26359;48.750;9.314;2022-09-09T04:18:25;7.85;;;6.50;;
40675;SDS011;26359;48.750;9.314;2022-09-09T04:20:51;8.32;;;7.03;;
40675;SDS011;26359;48.750;9.314;2022-09-09T04:23:18;7.95;;;7.30;;
40675;SDS011;26359;48.750;9.314;2022-09-09T04:25:46;7.28;;;6.47;;
40675;SDS011;26359;48.750;9.314;2022-09-09T04:28:13;7.03;;;6.43;;
40675;SDS011;26359;48.750;9.314;2022-09-09T04:30:39;9.48;;;7.18;;
40675;SDS011;26359;48.750;9.314;2022-09-09T04:33:05;6.82;;;6.32;;
40675;SDS011;26359;48.750;9.314;2022-09-09T04:35:31;7.55;;;7.05;;
40675;SDS011;26359;48.750;9.314;2022-09-09T04:37:57;7.22;;;5.35;;
40675;SDS011;26359;48.750;9.314;2022-09-09T04:40:23;7.50;;;6.72;;
40675;SDS011;26359;48.750;9.314;2022-09-09T04:42:48;7.75;;;7.22;;
40675;SDS011;26359;48.750;9.314;2022-09-09T04:45:14;8.57;;;7.97;;
40675;SDS011;26359;48.750;9.314;2022-09-09T04:47:40;8.82;;;8.20;;
40675;SDS011;26359;48.750;9.314;2022-09-09T04:50:06;9.88;;;9.27;;
40675;SDS011;26359;48.750;9.314;2022-09-09T04:52:33;6.55;;;6.03;;
40675;SDS011;26359;48.750;9.314;2022-09-09T04:55:00;6.40;;;5.97;;
40675;SDS011;26359;48.750;9.314;2022-09-09T04:57:26;11.13;;;10.32;;
40675;SDS011;26359;48.750;9.314;2022-09-09T04:59:51;12.80;;;11.48;;
40675;SDS011;26359;48.750;9.314;2022-09-09T05:02:17;13.82;;;12.80;;
40675;SDS011;26359;48.750;9.314;2022-09-09T05:04:42;10.00;;;9.32;;
40675;SDS011;26359;48.750;9.314;2022-09-09T05:07:08;8.00;;;7.32;;
40675;SDS011;26359;48.750;9.314;2022-09-09T05:09:34;11.50;;;10.70;;
40675;SDS011;26359;48.750;9.314;2022-09-09T05:11:59;7.78;;;7.15;;
40675;SDS011;26359;48.750;9.314;2022-09-09T05:14:25;6.88;;;5.93;;
40675;SDS011;26359;48.750;9.314;2022-09-09T05:16:52;9.50;;;7.25;;
40675;SDS011;26359;48.750;9.314;2022-09-09T05:19:17;12.90;;;11.77;;
40675;SDS011;26359;48.750;9.314;2022-09-09T05:21:44;9.35;;;7.72;;
40675;SDS011;26359;48.750;9.314;2022-09-09T05:24:10;6.82;;;6.40;;
40675;SDS011;26359;48.750;9.314;2022-09-09T05:26:36;7.45;;;6.70;;
40675;SDS011;26359;48.750;9.314;2022-09-09T05:29:01;10.70;;;9.90;;
40675;SDS011;26359;48.750;9.314;2022-09-09T05:31:29;11.10;;;10.35;;
40675;SDS011;26359;48.750;9.314;2022-09-09T05:33:55;9.38;;;8.80;;
40675;SDS011;26359;48.750;9.314;2022-09-09T05:36:21;9.95;;;9.32;;
40675;SDS011;26359;48.750;9.314;2022-09-09T05:38:47;7.22;;;6.60;;
40675;SDS011;26359;48.750;9.314;2022-09-09T05:41:14;7.72;;;6.25;;
40675;SDS011;26359;48.750;9.314;2022-09-09T05:43:40;8.30;;;5.95;;
40675;SDS011;26359;48.750;9.314;2022-09-09T05:46:16;6.03;;;3.97;;
40675;SDS011;26359;48.750;9.314;2022-09-09T05:48:44;6.82;;;6.10;;
40675;SDS011;26359;48.750;9.314;2022-09-09T05:51:16;9.75;;;8.77;;
40675;SDS011;26359;48.750;9.314;2022-09-09T05:53:44;7.10;;;5.30;;
40675;SDS011;26359;48.750;9.314;2022-09-09T05:56:13;4.38;;;2.65;;
40675;SDS011;26359;48.750;9.314;2022-09-09T05:58:40;5.65;;;3.65;;
40675;SDS011;26359;48.750;9.314;2022-09-09T06:01:12;7.18;;;2.92;;
40675;SDS011;26359;48.750;9.314;2022-09-09T06:03:40;5.00;;;2.67;;
40675;SDS011;26359;48.750;9.314;2022-09-09T06:06:08;4.97;;;3.30;;
40675;SDS011;26359;48.750;9.314;2022-09-09T06:08:37;4.15;;;2.50;;
40675;SDS011;26359;48.750;9.314;2022-09-09T06:11:05;9.18;;;3.78;;
40675;SDS011;26359;48.750;9.314;2022-09-09T06:13:32;6.95;;;3.28;;
40675;SDS011;26359;48.750;9.314;2022-09-09T06:15:57;6.82;;;3.65;;
40675;SDS011;26359;48.750;9.314;2022-09-09T06:18:23;3.90;;;3.47;;
40675;SDS011;26359;48.750;9.314;2022-09-09T06:20:54;7.80;;;4.85;;
40675;SDS011;26359;48.750;9.314;2022-09-09T06:23:20;4.88;;;4.22;;
40675;SDS011;26359;48.750;9.314;2022-09-09T06:25:46;3.90;;;3.50;;
40675;SDS011;26359;48.750;9.314;2022-09-09T06:28:12;6.25;;;4.35;;
40675;SDS011;26359;48.750;9.314;2022-09-09T06:30:38;5.18;;;4.68;;
40675;SDS011;26359;48.750;9.314;2022-09-09T06:33:04;7.22;;;6.65;;
40675;SDS011;26359;48.750;9.314;2022-09-09T06:35:30;9.15;;;8.35;;
40675;SDS011;26359;48.750;9.314;2022-09-09T06:37:55;11.43;;;10.52;;
40675;SDS011;26359;48.750;9.314;2022-09-09T06:40:23;8.35;;;7.60;;
40675;SDS011;26359;48.750;9.314;2022-09-09T06:42:49;9.55;;;8.77;;
40675;SDS011;26359;48.750;9.314;2022-09-09T06:45:16;9.20;;;8.43;;
40675;SDS011;26359;48.750;9.314;2022-09-09T06:47:42;8.98;;;8.20;;
40675;SDS011;26359;48.750;9.314;2022-09-09T06:50:08;8.55;;;7.85;;
40675;SDS011;26359;48.750;9.314;2022-09-09T06:52:35;9.38;;;7.00;;
40675;SDS011;26359;48.750;9.314;2022-09-09T06:55:02;8.38;;;4.63;;
40675;SDS011;26359;48.750;9.314;2022-09-09T06:57:28;6.43;;;4.95;;
40675;SDS011;26359;48.750;9.314;2022-09-09T06:59:53;9.20;;;4.07;;
40675;SDS011;26359;48.750;9.314;2022-09-09T07:02:19;4.88;;;4.40;;
40675;SDS011;26359;48.750;9.314;2022-09-09T07:04:44;6.32;;;4.53;;
40675;SDS011;26359;48.750;9.314;2022-09-09T07:07:10;5.53;;;4.18;;
40675;SDS011;26359;48.750;9.314;2022-09-09T07:09:38;20.50;;;19.00;;
40675;SDS011;26359;48.750;9.314;2022-09-09T07:12:04;26.42;;;24.75;;
40675;SDS011;26359;48.750;9.314;2022-09-09T07:14:31;24.55;;;23.00;;
40675;SDS011;26359;48.750;9.314;2022-09-09T07:16:57;27.23;;;25.45;;
40675;SDS011;26359;48.750;9.314;2022-09-09T07:19:23;10.57;;;9.57;;
40675;SDS011;26359;48.750;9.314;2022-09-09T07:21:48;10.73;;;9.93;;
40675;SDS011;26359;48.750;9.314;2022-09-09T07:24:14;11.10;;;10.20;;
40675;SDS011;26359;48.750;9.314;2022-09-09T07:26:40;16.15;;;15.02;;
40675;SDS011;26359;48.750;9.314;2022-09-09T07:29:06;13.88;;;12.88;;
40675;SDS011;26359;48.750;9.314;2022-09-09T07:31:34;12.43;;;11.30;;
40675;SDS011;26359;48.750;9.314;2022-09-09T07:34:02;13.50;;;12.55;;
40675;SDS011;26359;48.750;9.314;2022-09-09T07:36:33;8.07;;;7.22;;
40675;SDS011;26359;48.750;9.314;2022-09-09T07:39:01;12.55;;;11.65;;
40675;SDS011;26359;48.750;9.314;2022-09-09T07:41:30;8.05;;;7.35;;
40675;SDS011;26359;48.750;9.314;2022-09-09T07:44:05;12.80;;;11.82;;
40675;SDS011;26359;48.750;9.314;2022-09-09T07:46:38;15.03;;;13.73;;
40675;SDS011;26359;48.750;9.314;2022-09-09T07:49:07;9.93;;;8.82;;
40675;SDS011;26359;48.750;9.314;2022-09-09T07:51:43;11.52;;;10.57;;
40675;SDS011;26359;48.750;9.314;2022-09-09T07:54:11;15.75;;;14.65;;
40675;SDS011;26359;48.750;9.314;2022-09-09T07:56:38;6.97;;;6.40;;
40675;SDS011;26359;48.750;9.314;2022-09-09T07:59:04;7.53;;;6.88;;
40675;SDS011;26359;48.750;9.314;2022-09-09T08:01:38;14.23;;;13.07;;
40675;SDS011;26359;48.750;9.314;2022-09-09T08:04:07;10.73;;;9.93;;
40675;SDS011;26359;48.750;9.314;2022-09-09T08:06:36;11.52;;;10.43;;
40675;SDS011;26359;48.750;9.314;2022-09-09T08:09:05;10.13;;;7.70;;
40675;SDS011;26359;48.750;9.314;2022-09-09T08:11:32;7.47;;;6.88;;
40675;SDS011;26359;48.750;9.314;2022-09-09T08:13:59;10.30;;;9.63;;
40675;SDS011;26359;48.750;9.314;2022-09-09T08:16:26;8.70;;;8.00;;
40675;SDS011;26359;48.750;9.314;2022-09-09T08:18:53;15.38;;;14.05;;
40675;SDS011;26359;48.750;9.314;2022-09-09T08:21:26;16.98;;;15.88;;
40675;SDS011;26359;48.750;9.314;2022-09-09T08:23:53;13.30;;;12.23;;
40675;SDS011;26359;48.750;9.314;2022-09-09T08:26:26;7.18;;;6.68;;
40675;SDS011;26359;48.750;9.314;2022-09-09T08:28:54;15.77;;;14.50;;
40675;SDS011;26359;48.750;9.314;2022-09-09T08:31:25;18.85;;;17.50;;
40675;SDS011;26359;48.750;9.314;2022-09-09T08:33:56;3.90;;;3.60;;
40675;SDS011;26359;48.750;9.314;2022-09-09T08:36:23;8.68;;;5.38;;
40675;SDS011;26359;48.750;9.314;2022-09-09T08:38:51;8.93;;;4.55;;
40675;SDS011;26359;48.750;9.314;2022-09-09T08:52:31;5.55;;;4.22;;
40675;SDS011;26359;48.750;9.314;2022-09-09T08:55:24;6.50;;;5.95;;
40675;SDS011;26359;48.750;9.314;2022-09-09T08:58:16;10.27;;;5.85;;
40675;SDS011;26359;48.750;9.314;2022-09-09T09:12:00;9.45;;;8.55;;
40675;SDS011;26359;48.750;9.314;2022-09-09T09:14:31;10.50;;;9.75;;
40675;SDS011;26359;48.750;9.314;2022-09-09T09:17:15;7.28;;;6.57;;
40675;SDS011;26359;48.750;9.314;2022-09-09T09:19:46;8.23;;;7.63;;
40675;SDS011;26359;48.750;9.314;2022-09-09T09:22:16;7.30;;;6.60;;
40675;SDS011;26359;48.750;9.314;2022-09-09T09:24:52;6.38;;;5.80;;
40675;SDS011;26359;48.750;9.314;2022-09-09T09:29:56;5.38;;;3.78;;
40675;SDS011;26359;48.750;9.314;2022-09-09T09:32:24;4.40;;;3.40;;
40675;SDS011;26359;48.750;9.314;2022-09-09T09:34:56;7.10;;;3.50;;
40675;SDS011;26359;48.750;9.314;2022-09-09T09:37:27;5.22;;;3.50;;
40675;SDS011;26359;48.750;9.314;2022-09-09T09:39:55;5.07;;;4.18;;
40675;SDS011;26359;48.750;9.314;2022-09-09T09:42:20;8.18;;;5.20;;
40675;SDS011;26359;48.750;9.314;2022-09-09T09:44:47;5.38;;;4.20;;
40675;SDS011;26359;48.750;9.314;2022-09-09T09:47:20;3.85;;;3.10;;
40675;SDS011;26359;48.750;9.314;2022-09-09T09:52:28;5.35;;;3.10;;
40675;SDS011;26359;48.750;9.314;2022-09-09T09:54:56;6.05;;;4.43;;
40675;SDS011;26359;48.750;9.314;2022-09-09T09:57:26;3.17;;;2.92;;
40675;SDS011;26359;48.750;9.314;2022-09-09T10:00:02;5.35;;;2.33;;
40675;SDS011;26359;48.750;9.314;2022-09-09T10:02:40;4.20;;;2.97;;
40675;SDS011;26359;48.750;9.314;2022-09-09T10:05:21;4.32;;;2.05;;
40675;SDS011;26359;48.750;9.314;2022-09-09T10:10:46;3.70;;;2.17;;
40675;SDS011;26359;48.750;9.314;2022-09-09T10:16:28;3.55;;;3.28;;
40675;SDS011;26359;48.750;9.314;2022-09-09T10:19:19;4.93;;;4.38;;
40675;SDS011;26359;48.750;9.314;2022-09-09T10:22:10;4.30;;;4.00;;
40675;SDS011;26359;48.750;9.314;2022-09-09T10:31:12;4.85;;;4.55;;
40675;SDS011;26359;48.750;9.314;2022-09-09T10:36:50;9.70;;;8.85;;
40675;SDS011;26359;48.750;9.314;2022-09-09T10:41:52;6.03;;;5.20;;
40675;SDS011;26359;48.750;9.314;2022-09-09T10:53:02;4.25;;;3.60;;
40675;SDS011;26359;48.750;9.314;2022-09-09T10:55:37;5.00;;;3.83;;
40675;SDS011;26359;48.750;9.314;2022-09-09T10:58:10;5.88;;;4.03;;
40675;SDS011;26359;48.750;9.314;2022-09-09T11:00:42;5.97;;;4.90;;
40675;SDS011;26359;48.750;9.314;2022-09-09T11:03:22;5.40;;;3.80;;
40675;SDS011;26359;48.750;9.314;2022-09-09T11:05:57;7.00;;;6.40;;
40675;SDS011;26359;48.750;9.314;2022-09-09T11:08:45;6.85;;;5.68;;
40675;SDS011;26359;48.750;9.314;2022-09-09T11:14:19;6.07;;;5.65;;
40675;SDS011;26359;48.750;9.314;2022-09-09T11:17:09;5.13;;;4.63;;
40675;SDS011;26359;48.750;9.314;2022-09-09T11:19:38;5.43;;;4.47;;
40675;SDS011;26359;48.750;9.314;2022-09-09T11:22:16;4.75;;;4.38;;
40675;SDS011;26359;48.750;9.314;2022-09-09T11:27:43;6.50;;;5.90;;
40675;SDS011;26359;48.750;9.314;2022-09-09T11:30:37;5.15;;;4.32;;
40675;SDS011;26359;48.750;9.314;2022-09-09T11:33:37;7.57;;;6.40;;
40675;SDS011;26359;48.750;9.314;2022-09-09T11:38:51;6.05;;;5.38;;
40675;SDS011;26359;48.750;9.314;2022-09-09T11:41:19;14.43;;;13.27;;
40675;SDS011;26359;48.750;9.314;2022-09-09T11:43:49;5.25;;;4.78;;
40675;SDS011;26359;48.750;9.314;2022-09-09T11:46:17;9.30;;;8.48;;
40675;SDS011;26359;48.750;9.314;2022-09-09T11:49:03;7.50;;;4.88;;
40675;SDS011;26359;48.750;9.314;2022-09-09T11:51:31;6.35;;;4.50;;
40675;SDS011;26359;48.750;9.314;2022-09-09T11:53:59;5.65;;;4.05;;
40675;SDS011;26359;48.750;9.314;2022-09-09T11:56:34;4.18;;;3.78;;
40675;SDS011;26359;48.750;9.314;2022-09-09T11:59:20;3.60;;;3.10;;
40675;SDS011;26359;48.750;9.314;2022-09-09T12:01:57;6.88;;;6.25;;
40675;SDS011;26359;48.750;9.314;2022-09-09T12:06:53;6.60;;;5.80;;
40675;SDS011;26359;48.750;9.314;2022-09-09T12:09:27;5.43;;;4.93;;
40675;SDS011;26359;48.750;9.314;2022-09-09T12:12:07;4.60;;;4.30;;
40675;SDS011;26359;48.750;9.314;2022-09-09T12:17:17;9.23;;;8.73;;
40675;SDS011;26359;48.750;9.314;2022-09-09T12:22:48;4.03;;;3.10;;
40675;SDS011;26359;48.750;9.314;2022-09-09T12:25:31;9.38;;;8.88;;
40675;SDS011;26359;48.750;9.314;2022-09-09T12:28:21;8.45;;;7.95;;
40675;SDS011;26359;48.750;9.314;2022-09-09T12:30:58;3.88;;;3.67;;
40675;SDS011;26359;48.750;9.314;2022-09-09T12:33:49;4.40;;;4.18;;
40675;SDS011;26359;48.750;9.314;2022-09-09T12:36:29;3.55;;;3.35;;
40675;SDS011;26359;48.750;9.314;2022-09-09T12:38:58;4.15;;;3.95;;
40675;SDS011;26359;48.750;9.314;2022-09-09T12:41:35;3.55;;;3.25;;
40675;SDS011;26359;48.750;9.314;2022-09-09T12:44:08;4.63;;;4.38;;
40675;SDS011;26359;48.750;9.314;2022-09-09T12:46:39;4.53;;;4.22;;
40675;SDS011;26359;48.750;9.314;2022-09-09T12:52:07;4.32;;;4.03;;
40675;SDS011;26359;48.750;9.314;2022-09-09T12:54:37;5.40;;;5.03;;
40675;SDS011;26359;48.750;9.314;2022-09-09T12:57:12;7.15;;;6.65;;
40675;SDS011;26359;48.750;9.314;2022-09-09T12:59:40;7.97;;;7.47;;
40675;SDS011;26359;48.750;9.314;2022-09-09T13:02:14;8.60;;;8.10;;
40675;SDS011;26359;48.750;9.314;2022-09-09T13:04:41;9.70;;;9.00;;
40675;SDS011;26359;48.750;9.314;2022-09-09T13:07:07;12.57;;;11.82;;
40675;SDS011;26359;48.750;9.314;2022-09-09T13:09:34;9.07;;;8.57;;
40675;SDS011;26359;48.750;9.314;2022-09-09T13:12:00;14.45;;;13.70;;
40675;SDS011;26359;48.750;9.314;2022-09-09T13:14:31;5.65;;;5.15;;
40675;SDS011;26359;48.750;9.314;2022-09-09T13:17:03;4.68;;;4.28;;
40675;SDS011;26359;48.750;9.314;2022-09-09T13:19:31;4.15;;;3.85;;
40675;SDS011;26359;48.750;9.314;2022-09-09T13:22:00;5.22;;;4.93;;
40675;SDS011;26359;48.750;9.314;2022-09-09T13:24:38;4.72;;;4.30;;
40675;SDS011;26359;48.750;9.314;2022-09-09T13:27:05;5.93;;;5.43;;
40675;SDS011;26359;48.750;9.314;2022-09-09T13:29:59;8.75;;;8.20;;
40675;SDS011;26359;48.750;9.314;2022-09-09T13:32:25;9.02;;;8.38;;
40675;SDS011;26359;48.750;9.314;2022-09-09T13:34:56;11.20;;;10.50;;
40675;SDS011;26359;48.750;9.314;2022-09-09T13:37:26;8.90;;;8.30;;
40675;SDS011;26359;48.750;9.314;2022-09-09T13:39:56;5.28;;;3.70;;
40675;SDS011;26359;48.750;9.314;2022-09-09T13:42:24;3.58;;;3.15;;
40675;SDS011;26359;48.750;9.314;2022-09-09T13:44:52;5.05;;;4.68;;
40675;SDS011;26359;48.750;9.314;2022-09-09T13:47:19;3.20;;;3.00;;
40675;SDS011;26359;48.750;9.314;2022-09-09T13:49:49;6.20;;;5.85;;
40675;SDS011;26359;48.750;9.314;2022-09-09T13:52:15;5.80;;;5.38;;
40675;SDS011;26359;48.750;9.314;2022-09-09T13:54:47;10.48;;;9.82;;
40675;SDS011;26359;48.750;9.314;2022-09-09T13:57:20;9.27;;;8.52;;
40675;SDS011;26359;48.750;9.314;2022-09-09T13:59:48;9.50;;;8.82;;
40675;SDS011;26359;48.750;9.314;2022-09-09T14:02:14;10.70;;;10.02;;
40675;SDS011;26359;48.750;9.314;2022-09-09T14:04:41;13.10;;;12.10;;
40675;SDS011;26359;48.750;9.314;2022-09-09T14:07:16;12.52;;;11.73;;
40675;SDS011;26359;48.750;9.314;2022-09-09T14:09:43;12.82;;;12.02;;
40675;SDS011;26359;48.750;9.314;2022-09-09T14:12:12;16.65;;;15.68;;
40675;SDS011;26359;48.750;9.314;2022-09-09T14:14:38;17.15;;;16.23;;
40675;SDS011;26359;48.750;9.314;2022-09-09T14:17:04;16.58;;;15.75;;
40675;SDS011;26359;48.750;9.314;2022-09-09T14:19:30;9.20;;;8.40;;
40675;SDS011;26359;48.750;9.314;2022-09-09T14:21:56;11.27;;;10.63;;
40675;SDS011;26359;48.750;9.314;2022-09-09T14:24:22;11.32;;;10.52;;
40675;SDS011;26359;48.750;9.314;2022-09-09T14:26:48;16.73;;;15.57;;
40675;SDS011;26359;48.750;9.314;2022-09-09T14:29:14;8.77;;;8.27;;
40675;SDS011;26359;48.750;9.314;2022-09-09T14:31:39;6.65;;;6.15;;
40675;SDS011;26359;48.750;9.314;2022-09-09T14:34:05;7.80;;;7.30;;
40675;SDS011;26359;48.750;9.314;2022-09-09T14:36:31;9.80;;;9.10;;
40675;SDS011;26359;48.750;9.314;2022-09-09T14:38:56;8.20;;;7.65;;
40675;SDS011;26359;48.750;9.314;2022-09-09T14:41:22;8.25;;;7.75;;
40675;SDS011;26359;48.750;9.314;2022-09-09T14:43:48;4.38;;;3.97;;
40675;SDS011;26359;48.750;9.314;2022-09-09T14:46:15;5.40;;;4.97;;
40675;SDS011;26359;48.750;9.314;2022-09-09T14:48:42;10.90;;;10.10;;
40675;SDS011;26359;48.750;9.314;2022-09-09T14:51:11;7.65;;;7.15;;
40675;SDS011;26359;48.750;9.314;2022-09-09T14:53:43;8.05;;;7.47;;
40675;SDS011;26359;48.750;9.314;2022-09-09T14:56:10;5.15;;;4.85;;
40675;SDS011;26359;48.750;9.314;2022-09-09T14:58:38;5.38;;;4.93;;
40675;SDS011;26359;48.750;9.314;2022-09-09T15:01:04;8.45;;;7.85;;
40675;SDS011;26359;48.750;9.314;2022-09-09T15:03:31;5.57;;;5.22;;
40675;SDS011;26359;48.750;9.314;2022-09-09T15:05:57;7.13;;;6.68;;
40675;SDS011;26359;48.750;9.314;2022-09-09T15:08:25;6.38;;;5.97;;
40675;SDS011;26359;48.750;9.314;2022-09-09T15:10:58;7.18;;;6.68;;
40675;SDS011;26359;48.750;9.314;2022-09-09T15:13:25;7.82;;;7.28;;
40675;SDS011;26359;48.750;9.314;2022-09-09T15:15:50;7.30;;;6.90;;
40675;SDS011;26359;48.750;9.314;2022-09-09T15:18:16;6.82;;;6.43;;
40675;SDS011;26359;48.750;9.314;2022-09-09T15:20:44;7.30;;;6.72;;
40675;SDS011;26359;48.750;9.314;2022-09-09T15:23:11;8.05;;;7.43;;
40675;SDS011;26359;48.750;9.314;2022-09-09T15:25:37;6.43;;;5.85;;
40675;SDS011;26359;48.750;9.314;2022-09-09T15:28:02;5.50;;;5.15;;
40675;SDS011;26359;48.750;9.314;2022-09-09T15:30:28;7.68;;;6.95;;
40675;SDS011;26359;48.750;9.314;2022-09-09T15:32:53;4.90;;;4.50;;
40675;SDS011;26359;48.750;9.314;2022-09-09T15:35:19;4.35;;;4.03;;
40675;SDS011;26359;48.750;9.314;2022-09-09T15:37:45;4.95;;;4.43;;
40675;SDS011;26359;48.750;9.314;2022-09-09T15:40:11;4.65;;;4.25;;
40675;SDS011;26359;48.750;9.314;2022-09-09T15:42:36;4.18;;;3.78;;
40675;SDS011;26359;48.750;9.314;2022-09-09T15:45:02;4.00;;;3.60;;
40675;SDS011;26359;48.750;9.314;2022-09-09T15:47:30;3.13;;;2.92;;
40675;SDS011;26359;48.750;9.314;2022-09-09T15:49:55;4.20;;;3.03;;
40675;SDS011;26359;48.750;9.314;2022-09-09T15:52:21;4.45;;;3.15;;
40675;SDS011;26359;48.750;9.314;2022-09-09T15:54:46;3.72;;;3.25;;
40675;SDS011;26359;48.750;9.314;2022-09-09T15:57:12;3.28;;;2.80;;
40675;SDS011;26359;48.750;9.314;2022-09-09T15:59:38;3.60;;;3.15;;
40675;SDS011;26359;48.750;9.314;2022-09-09T16:02:05;5.85;;;3.60;;
40675;SDS011;26359;48.750;9.314;2022-09-09T16:04:31;3.80;;;3.35;;
40675;SDS011;26359;48.750;9.314;2022-09-09T16:06:59;5.35;;;4.03;;
40675;SDS011;26359;48.750;9.314;2022-09-09T16:09:26;5.22;;;4.70;;
40675;SDS011;26359;48.750;9.314;2022-09-09T16:11:55;3.40;;;3.20;;
40675;SDS011;26359;48.750;9.314;2022-09-09T16:14:22;5.20;;;4.72;;
40675;SDS011;26359;48.750;9.314;2022-09-09T16:16:50;4.10;;;3.67;;
40675;SDS011;26359;48.750;9.314;2022-09-09T16:19:15;3.65;;;3.35;;
40675;SDS011;26359;48.750;9.314;2022-09-09T16:21:42;3.47;;;3.28;;
40675;SDS011;26359;48.750;9.314;2022-09-09T16:24:11;6.18;;;3.70;;
40675;SDS011;26359;48.750;9.314;2022-09-09T16:26:39;3.88;;;3.53;;
40675;SDS011;26359;48.750;9.314;2022-09-09T16:29:07;4.85;;;4.25;;
40675;SDS011;26359;48.750;9.314;2022-09-09T16:31:33;4.35;;;3.47;;
40675;SDS011;26359;48.750;9.314;2022-09-09T16:33:59;5.07;;;3.63;;
40675;SDS011;26359;48.750;9.314;2022-09-09T16:36:28;3.40;;;3.20;;
40675;SDS011;26359;48.750;9.314;2022-09-09T16:38:56;3.38;;;3.05;;
40675;SDS011;26359;48.750;9.314;2022-09-09T16:41:24;6.10;;;3.33;;
40675;SDS011;26359;48.750;9.314;2022-09-09T16:44:10;8.88;;;8.23;;
40675;SDS011;26359;48.750;9.314;2022-09-09T16:49:04;5.15;;;4.70;;
40675;SDS011;26359;48.750;9.314;2022-09-09T16:51:36;15.70;;;14.80;;
40675;SDS011;26359;48.750;9.314;2022-09-09T16:54:04;14.48;;;13.48;;
40675;SDS011;26359;48.750;9.314;2022-09-09T16:56:32;12.90;;;12.20;;